sensor_id;sensor_type;location;lat;lon;timestamp;P1;durP1;ratioP1;P2;durP2;ratioP2
61397;SDS011;47267;48.130;-2.040;2023-04-06T00:01:09;2.28;;;1.48;;
61397;SDS011;47267;48.130;-2.040;2023-04-06T00:03:38;2.67;;;1.70;;
61397;SDS011;47267;48.130;-2.040;2023-04-06T00:06:04;2.00;;;1.50;;
61397;SDS011;47267;48.130;-2.040;2023-04-06T00:08:30;2.47;;;1.48;;
61397;SDS011;47267;48.130;-2.040;2023-04-06T00:10:56;2.42;;;1.40;;
61397;SDS011;47267;48.130;-2.040;2023-04-06T00:13:21;3.20;;;1.30;;
61397;SDS011;47267;48.130;-2.040;2023-04-06T00:15:47;2.20;;;1.60;;
61397;SDS011;47267;48.130;-2.040;2023-04-06T00:18:13;1.63;;;1.45;;
61397;SDS011;47267;48.130;-2.040;2023-04-06T00:20:39;2.55;;;1.70;;
61397;SDS011;47267;48.130;-2.040;2023-04-06T00:23:05;2.63;;;1.40;;
61397;SDS011;47267;48.130;-2.040;2023-04-06T00:25:31;3.58;;;1.63;;
61397;SDS011;47267;48.130;-2.040;2023-04-06T00:27:56;2.53;;;1.67;;
61397;SDS011;47267;48.130;-2.040;2023-04-06T00:30:22;2.17;;;1.60;;
61397;SDS011;47267;48.130;-2.040;2023-04-06T00:32:48;2.42;;;1.60;;
61397;SDS011;47267;48.130;-2.040;2023-04-06T00:35:13;2.15;;;1.38;;
61397;SDS011;47267;48.130;-2.040;2023-04-06T00:37:40;1.73;;;1.38;;
61397;SDS011;47267;48.130;-2.040;2023-04-06T00:40:06;2.67;;;1.80;;
61397;SDS011;47267;48.130;-2.040;2023-04-06T00:42:32;2.97;;;1.60;;
61397;SDS011;47267;48.130;-2.040;2023-04-06T00:44:59;1.90;;;1.48;;
61397;SDS011;47267;48.130;-2.040;2023-04-06T00:47:26;2.28;;;1.65;;
61397;SDS011;47267;48.130;-2.040;2023-04-06T00:49:52;1.75;;;1.42;;
61397;SDS011;47267;48.130;-2.040;2023-04-06T00:52:18;1.83;;;1.50;;
61397;SDS011;47267;48.130;-2.040;2023-04-06T00:54:44;1.83;;;1.50;;
61397;SDS011;47267;48.130;-2.040;2023-04-06T00:57:11;2.88;;;1.75;;
61397;SDS011;47267;48.130;-2.040;2023-04-06T00:59:37;2.13;;;1.40;;
61397;SDS011;47267;48.130;-2.040;2023-04-06T01:02:03;2.67;;;1.55;;
61397;SDS011;47267;48.130;-2.040;2023-04-06T01:04:29;2.53;;;1.55;;
61397;SDS011;47267;48.130;-2.040;2023-04-06T01:06:56;2.50;;;1.50;;
61397;SDS011;47267;48.130;-2.040;2023-04-06T01:09:21;2.10;;;1.60;;
61397;SDS011;47267;48.130;-2.040;2023-04-06T01:11:47;1.60;;;1.48;;
61397;SDS011;47267;48.130;-2.040;2023-04-06T01:14:13;2.17;;;1.60;;
61397;SDS011;47267;48.130;-2.040;2023-04-06T01:16:40;2.40;;;1.60;;
61397;SDS011;47267;48.130;-2.040;2023-04-06T01:19:10;2.83;;;1.48;;
61397;SDS011;47267;48.130;-2.040;2023-04-06T01:21:40;2.10;;;1.60;;
61397;SDS011;47267;48.130;-2.040;2023-04-06T01:24:06;2.05;;;1.67;;
61397;SDS011;47267;48.130;-2.040;2023-04-06T01:26:33;1.98;;;1.50;;
61397;SDS011;47267;48.130;-2.040;2023-04-06T01:29:00;1.60;;;1.38;;
61397;SDS011;47267;48.130;-2.040;2023-04-06T01:31:26;2.38;;;1.63;;
61397;SDS011;47267;48.130;-2.040;2023-04-06T01:33:52;2.20;;;1.50;;
61397;SDS011;47267;48.130;-2.040;2023-04-06T01:36:18;3.10;;;1.50;;
61397;SDS011;47267;48.130;-2.040;2023-04-06T01:38:44;1.83;;;1.35;;
61397;SDS011;47267;48.130;-2.040;2023-04-06T01:41:10;2.10;;;1.30;;
61397;SDS011;47267;48.130;-2.040;2023-04-06T01:43:36;1.67;;;1.35;;
61397;SDS011;47267;48.130;-2.040;2023-04-06T01:46:02;2.60;;;1.75;;
61397;SDS011;47267;48.130;-2.040;2023-04-06T01:48:28;2.33;;;1.58;;
61397;SDS011;47267;48.130;-2.040;2023-04-06T01:50:54;2.30;;;1.65;;
61397;SDS011;47267;48.130;-2.040;2023-04-06T01:53:20;1.70;;;1.30;;
61397;SDS011;47267;48.130;-2.040;2023-04-06T01:55:46;2.20;;;1.58;;
61397;SDS011;47267;48.130;-2.040;2023-04-06T01:58:12;1.95;;;1.52;;
61397;SDS011;47267;48.130;-2.040;2023-04-06T02:00:38;1.77;;;1.33;;
61397;SDS011;47267;48.130;-2.040;2023-04-06T02:03:05;2.08;;;1.67;;
61397;SDS011;47267;48.130;-2.040;2023-04-06T02:05:32;2.13;;;1.30;;
61397;SDS011;47267;48.130;-2.040;2023-04-06T02:10:31;2.45;;;1.52;;
61397;SDS011;47267;48.130;-2.040;2023-04-06T02:12:58;1.80;;;1.50;;
61397;SDS011;47267;48.130;-2.040;2023-04-06T02:15:24;2.13;;;1.50;;
61397;SDS011;47267;48.130;-2.040;2023-04-06T02:17:50;1.83;;;1.20;;
61397;SDS011;47267;48.130;-2.040;2023-04-06T02:20:16;2.67;;;1.35;;
61397;SDS011;47267;48.130;-2.040;2023-04-06T02:22:42;2.10;;;1.50;;
61397;SDS011;47267;48.130;-2.040;2023-04-06T02:25:08;1.67;;;1.50;;
61397;SDS011;47267;48.130;-2.040;2023-04-06T02:27:33;1.83;;;1.50;;
61397;SDS011;47267;48.130;-2.040;2023-04-06T02:30:03;1.90;;;1.40;;
61397;SDS011;47267;48.130;-2.040;2023-04-06T02:32:29;2.22;;;1.60;;
61397;SDS011;47267;48.130;-2.040;2023-04-06T02:34:55;1.77;;;1.30;;
61397;SDS011;47267;48.130;-2.040;2023-04-06T02:37:21;1.90;;;1.20;;
61397;SDS011;47267;48.130;-2.040;2023-04-06T02:39:49;1.88;;;1.40;;
61397;SDS011;47267;48.130;-2.040;2023-04-06T02:42:15;1.52;;;1.42;;
61397;SDS011;47267;48.130;-2.040;2023-04-06T02:44:41;1.60;;;1.30;;
61397;SDS011;47267;48.130;-2.040;2023-04-06T02:47:07;2.13;;;1.42;;
61397;SDS011;47267;48.130;-2.040;2023-04-06T02:49:33;1.75;;;1.40;;
61397;SDS011;47267;48.130;-2.040;2023-04-06T02:51:59;1.63;;;1.50;;
61397;SDS011;47267;48.130;-2.040;2023-04-06T02:54:25;1.90;;;1.60;;
61397;SDS011;47267;48.130;-2.040;2023-04-06T02:56:51;2.03;;;1.60;;
61397;SDS011;47267;48.130;-2.040;2023-04-06T02:59:17;1.83;;;1.40;;
61397;SDS011;47267;48.130;-2.040;2023-04-06T03:01:43;1.83;;;1.40;;
61397;SDS011;47267;48.130;-2.040;2023-04-06T03:04:08;1.45;;;1.25;;
61397;SDS011;47267;48.130;-2.040;2023-04-06T03:06:34;1.73;;;1.35;;
61397;SDS011;47267;48.130;-2.040;2023-04-06T03:09:00;1.60;;;1.25;;
61397;SDS011;47267;48.130;-2.040;2023-04-06T03:11:25;1.90;;;1.20;;
61397;SDS011;47267;48.130;-2.040;2023-04-06T03:13:51;2.72;;;1.20;;
61397;SDS011;47267;48.130;-2.040;2023-04-06T03:16:17;1.42;;;1.33;;
61397;SDS011;47267;48.130;-2.040;2023-04-06T03:18:43;1.70;;;1.30;;
61397;SDS011;47267;48.130;-2.040;2023-04-06T03:21:10;1.95;;;1.35;;
61397;SDS011;47267;48.130;-2.040;2023-04-06T03:23:36;1.45;;;1.20;;
61397;SDS011;47267;48.130;-2.040;2023-04-06T03:26:02;2.00;;;1.38;;
61397;SDS011;47267;48.130;-2.040;2023-04-06T03:28:28;1.13;;;1.00;;
61397;SDS011;47267;48.130;-2.040;2023-04-06T03:30:54;1.80;;;1.20;;
61397;SDS011;47267;48.130;-2.040;2023-04-06T03:33:20;1.67;;;1.20;;
61397;SDS011;47267;48.130;-2.040;2023-04-06T03:35:46;2.45;;;1.30;;
61397;SDS011;47267;48.130;-2.040;2023-04-06T03:38:11;1.45;;;1.25;;
61397;SDS011;47267;48.130;-2.040;2023-04-06T03:40:37;1.77;;;1.10;;
61397;SDS011;47267;48.130;-2.040;2023-04-06T03:43:03;2.00;;;1.23;;
61397;SDS011;47267;48.130;-2.040;2023-04-06T03:45:29;1.27;;;1.08;;
61397;SDS011;47267;48.130;-2.040;2023-04-06T03:47:55;1.88;;;1.13;;
61397;SDS011;47267;48.130;-2.040;2023-04-06T03:50:22;2.15;;;1.25;;
61397;SDS011;47267;48.130;-2.040;2023-04-06T03:52:48;1.38;;;1.00;;
61397;SDS011;47267;48.130;-2.040;2023-04-06T03:55:13;1.65;;;1.20;;
61397;SDS011;47267;48.130;-2.040;2023-04-06T03:57:39;1.33;;;1.00;;
61397;SDS011;47267;48.130;-2.040;2023-04-06T04:00:05;1.70;;;1.30;;
61397;SDS011;47267;48.130;-2.040;2023-04-06T04:02:32;1.88;;;1.30;;
61397;SDS011;47267;48.130;-2.040;2023-04-06T04:04:57;1.55;;;1.00;;
61397;SDS011;47267;48.130;-2.040;2023-04-06T04:07:23;1.42;;;1.10;;
61397;SDS011;47267;48.130;-2.040;2023-04-06T04:09:49;1.48;;;1.20;;
61397;SDS011;47267;48.130;-2.040;2023-04-06T04:12:15;2.30;;;1.40;;
61397;SDS011;47267;48.130;-2.040;2023-04-06T04:14:41;1.60;;;1.20;;
61397;SDS011;47267;48.130;-2.040;2023-04-06T04:17:08;1.65;;;1.08;;
61397;SDS011;47267;48.130;-2.040;2023-04-06T04:19:34;1.63;;;1.15;;
61397;SDS011;47267;48.130;-2.040;2023-04-06T04:22:00;2.85;;;1.27;;
61397;SDS011;47267;48.130;-2.040;2023-04-06T04:24:29;2.47;;;1.30;;
61397;SDS011;47267;48.130;-2.040;2023-04-06T04:26:55;1.40;;;1.00;;
61397;SDS011;47267;48.130;-2.040;2023-04-06T04:29:21;1.55;;;1.20;;
61397;SDS011;47267;48.130;-2.040;2023-04-06T04:31:47;1.42;;;1.30;;
61397;SDS011;47267;48.130;-2.040;2023-04-06T04:34:17;2.00;;;1.30;;
61397;SDS011;47267;48.130;-2.040;2023-04-06T04:36:45;3.45;;;1.27;;
61397;SDS011;47267;48.130;-2.040;2023-04-06T04:39:11;1.55;;;1.20;;
61397;SDS011;47267;48.130;-2.040;2023-04-06T04:41:37;2.35;;;1.50;;
61397;SDS011;47267;48.130;-2.040;2023-04-06T04:44:03;1.20;;;1.10;;
61397;SDS011;47267;48.130;-2.040;2023-04-06T04:46:28;1.33;;;1.10;;
61397;SDS011;47267;48.130;-2.040;2023-04-06T04:48:54;1.75;;;1.13;;
61397;SDS011;47267;48.130;-2.040;2023-04-06T04:51:20;1.95;;;1.42;;
61397;SDS011;47267;48.130;-2.040;2023-04-06T04:53:46;1.70;;;1.20;;
61397;SDS011;47267;48.130;-2.040;2023-04-06T04:56:12;1.42;;;1.05;;
61397;SDS011;47267;48.130;-2.040;2023-04-06T04:58:37;2.90;;;1.13;;
61397;SDS011;47267;48.130;-2.040;2023-04-06T05:01:03;1.58;;;1.25;;
61397;SDS011;47267;48.130;-2.040;2023-04-06T05:03:29;1.60;;;1.13;;
61397;SDS011;47267;48.130;-2.040;2023-04-06T05:05:55;1.50;;;1.10;;
61397;SDS011;47267;48.130;-2.040;2023-04-06T05:08:21;2.08;;;1.10;;
61397;SDS011;47267;48.130;-2.040;2023-04-06T05:10:47;1.40;;;1.10;;
61397;SDS011;47267;48.130;-2.040;2023-04-06T05:13:13;1.40;;;0.90;;
61397;SDS011;47267;48.130;-2.040;2023-04-06T05:15:39;1.35;;;1.10;;
61397;SDS011;47267;48.130;-2.040;2023-04-06T05:18:06;1.55;;;1.10;;
61397;SDS011;47267;48.130;-2.040;2023-04-06T05:20:33;1.08;;;0.90;;
61397;SDS011;47267;48.130;-2.040;2023-04-06T05:23:00;1.60;;;1.15;;
61397;SDS011;47267;48.130;-2.040;2023-04-06T05:25:26;1.55;;;1.25;;
61397;SDS011;47267;48.130;-2.040;2023-04-06T05:27:52;1.73;;;1.10;;
61397;SDS011;47267;48.130;-2.040;2023-04-06T05:30:18;1.90;;;1.20;;
61397;SDS011;47267;48.130;-2.040;2023-04-06T05:32:44;1.65;;;1.10;;
61397;SDS011;47267;48.130;-2.040;2023-04-06T05:35:10;1.50;;;0.98;;
61397;SDS011;47267;48.130;-2.040;2023-04-06T05:37:37;1.98;;;1.13;;
61397;SDS011;47267;48.130;-2.040;2023-04-06T05:40:03;1.45;;;1.08;;
61397;SDS011;47267;48.130;-2.040;2023-04-06T05:42:39;5.55;;;1.67;;
61397;SDS011;47267;48.130;-2.040;2023-04-06T05:45:07;2.83;;;1.65;;
61397;SDS011;47267;48.130;-2.040;2023-04-06T05:47:34;4.50;;;1.75;;
61397;SDS011;47267;48.130;-2.040;2023-04-06T05:50:00;2.95;;;1.60;;
61397;SDS011;47267;48.130;-2.040;2023-04-06T05:52:26;5.25;;;1.85;;
61397;SDS011;47267;48.130;-2.040;2023-04-06T05:54:52;6.40;;;1.80;;
61397;SDS011;47267;48.130;-2.040;2023-04-06T05:57:17;3.95;;;1.80;;
61397;SDS011;47267;48.130;-2.040;2023-04-06T05:59:43;3.20;;;1.55;;
61397;SDS011;47267;48.130;-2.040;2023-04-06T06:02:09;3.72;;;1.60;;
61397;SDS011;47267;48.130;-2.040;2023-04-06T06:04:35;4.03;;;2.05;;
61397;SDS011;47267;48.130;-2.040;2023-04-06T06:07:01;5.45;;;1.92;;
61397;SDS011;47267;48.130;-2.040;2023-04-06T06:09:27;3.60;;;2.03;;
61397;SDS011;47267;48.130;-2.040;2023-04-06T06:11:52;4.05;;;1.70;;
61397;SDS011;47267;48.130;-2.040;2023-04-06T06:14:18;5.97;;;1.70;;
61397;SDS011;47267;48.130;-2.040;2023-04-06T06:16:45;6.97;;;1.92;;
61397;SDS011;47267;48.130;-2.040;2023-04-06T06:19:10;3.90;;;1.70;;
61397;SDS011;47267;48.130;-2.040;2023-04-06T06:21:36;4.22;;;1.70;;
61397;SDS011;47267;48.130;-2.040;2023-04-06T06:24:02;4.88;;;1.75;;
61397;SDS011;47267;48.130;-2.040;2023-04-06T06:26:28;4.45;;;1.80;;
61397;SDS011;47267;48.130;-2.040;2023-04-06T06:28:53;4.45;;;2.00;;
61397;SDS011;47267;48.130;-2.040;2023-04-06T06:31:20;4.97;;;1.90;;
61397;SDS011;47267;48.130;-2.040;2023-04-06T06:33:47;4.15;;;1.80;;
61397;SDS011;47267;48.130;-2.040;2023-04-06T06:36:16;4.30;;;2.03;;
61397;SDS011;47267;48.130;-2.040;2023-04-06T06:38:42;3.28;;;1.55;;
61397;SDS011;47267;48.130;-2.040;2023-04-06T06:41:08;3.42;;;1.80;;
61397;SDS011;47267;48.130;-2.040;2023-04-06T06:43:34;5.30;;;1.70;;
61397;SDS011;47267;48.130;-2.040;2023-04-06T06:46:00;3.47;;;1.55;;
61397;SDS011;47267;48.130;-2.040;2023-04-06T06:48:26;3.83;;;2.00;;
61397;SDS011;47267;48.130;-2.040;2023-04-06T06:50:54;2.60;;;1.70;;
61397;SDS011;47267;48.130;-2.040;2023-04-06T06:53:20;3.55;;;1.52;;
61397;SDS011;47267;48.130;-2.040;2023-04-06T06:55:46;3.13;;;1.65;;
61397;SDS011;47267;48.130;-2.040;2023-04-06T06:58:14;4.75;;;1.65;;
61397;SDS011;47267;48.130;-2.040;2023-04-06T07:00:40;3.92;;;1.63;;
61397;SDS011;47267;48.130;-2.040;2023-04-06T07:03:08;3.72;;;1.50;;
61397;SDS011;47267;48.130;-2.040;2023-04-06T07:05:34;3.60;;;1.50;;
61397;SDS011;47267;48.130;-2.040;2023-04-06T07:08:00;4.10;;;1.60;;
61397;SDS011;47267;48.130;-2.040;2023-04-06T07:10:26;3.65;;;1.70;;
61397;SDS011;47267;48.130;-2.040;2023-04-06T07:12:52;3.58;;;1.77;;
61397;SDS011;47267;48.130;-2.040;2023-04-06T07:15:17;2.60;;;1.75;;
61397;SDS011;47267;48.130;-2.040;2023-04-06T07:17:43;3.85;;;1.60;;
61397;SDS011;47267;48.130;-2.040;2023-04-06T07:20:12;2.83;;;1.50;;
61397;SDS011;47267;48.130;-2.040;2023-04-06T07:22:38;4.13;;;1.75;;
61397;SDS011;47267;48.130;-2.040;2023-04-06T07:25:05;2.45;;;1.55;;
61397;SDS011;47267;48.130;-2.040;2023-04-06T07:27:31;3.10;;;1.60;;
61397;SDS011;47267;48.130;-2.040;2023-04-06T07:29:57;2.40;;;1.55;;
61397;SDS011;47267;48.130;-2.040;2023-04-06T07:32:22;3.63;;;1.80;;
61397;SDS011;47267;48.130;-2.040;2023-04-06T07:34:48;2.60;;;1.48;;
61397;SDS011;47267;48.130;-2.040;2023-04-06T07:37:15;2.35;;;1.40;;
61397;SDS011;47267;48.130;-2.040;2023-04-06T07:39:40;2.40;;;1.42;;
61397;SDS011;47267;48.130;-2.040;2023-04-06T07:42:06;2.38;;;1.42;;
61397;SDS011;47267;48.130;-2.040;2023-04-06T07:44:32;4.22;;;1.80;;
61397;SDS011;47267;48.130;-2.040;2023-04-06T07:46:57;3.60;;;1.40;;
61397;SDS011;47267;48.130;-2.040;2023-04-06T07:49:23;2.63;;;1.60;;
61397;SDS011;47267;48.130;-2.040;2023-04-06T07:51:49;3.03;;;1.40;;
61397;SDS011;47267;48.130;-2.040;2023-04-06T07:54:15;2.15;;;1.45;;
61397;SDS011;47267;48.130;-2.040;2023-04-06T07:56:41;4.65;;;1.35;;
61397;SDS011;47267;48.130;-2.040;2023-04-06T07:59:07;2.88;;;1.38;;
61397;SDS011;47267;48.130;-2.040;2023-04-06T08:01:32;2.95;;;1.23;;
61397;SDS011;47267;48.130;-2.040;2023-04-06T08:03:58;2.97;;;1.67;;
61397;SDS011;47267;48.130;-2.040;2023-04-06T08:06:27;3.10;;;1.50;;
61397;SDS011;47267;48.130;-2.040;2023-04-06T08:08:52;1.75;;;1.13;;
61397;SDS011;47267;48.130;-2.040;2023-04-06T08:11:18;2.35;;;1.35;;
61397;SDS011;47267;48.130;-2.040;2023-04-06T08:13:47;2.00;;;1.40;;
61397;SDS011;47267;48.130;-2.040;2023-04-06T08:16:12;3.67;;;1.25;;
61397;SDS011;47267;48.130;-2.040;2023-04-06T08:18:38;3.58;;;1.50;;
61397;SDS011;47267;48.130;-2.040;2023-04-06T08:21:04;1.98;;;1.15;;
61397;SDS011;47267;48.130;-2.040;2023-04-06T08:23:30;2.72;;;1.50;;
61397;SDS011;47267;48.130;-2.040;2023-04-06T08:25:55;2.33;;;1.17;;
61397;SDS011;47267;48.130;-2.040;2023-04-06T08:28:23;2.80;;;1.40;;
61397;SDS011;47267;48.130;-2.040;2023-04-06T08:30:51;2.13;;;1.38;;
61397;SDS011;47267;48.130;-2.040;2023-04-06T08:33:17;2.85;;;1.20;;
61397;SDS011;47267;48.130;-2.040;2023-04-06T08:35:43;2.97;;;1.20;;
61397;SDS011;47267;48.130;-2.040;2023-04-06T08:38:09;2.92;;;1.40;;
61397;SDS011;47267;48.130;-2.040;2023-04-06T08:40:38;2.25;;;1.10;;
61397;SDS011;47267;48.130;-2.040;2023-04-06T08:43:07;2.78;;;1.50;;
61397;SDS011;47267;48.130;-2.040;2023-04-06T08:45:38;3.03;;;1.38;;
61397;SDS011;47267;48.130;-2.040;2023-04-06T08:48:07;4.03;;;1.10;;
61397;SDS011;47267;48.130;-2.040;2023-04-06T08:50:33;2.65;;;1.35;;
61397;SDS011;47267;48.130;-2.040;2023-04-06T08:53:01;2.90;;;1.15;;
61397;SDS011;47267;48.130;-2.040;2023-04-06T08:55:27;2.33;;;1.20;;
61397;SDS011;47267;48.130;-2.040;2023-04-06T08:57:53;1.80;;;1.20;;
61397;SDS011;47267;48.130;-2.040;2023-04-06T09:00:21;2.55;;;1.23;;
61397;SDS011;47267;48.130;-2.040;2023-04-06T09:02:48;2.90;;;1.20;;
61397;SDS011;47267;48.130;-2.040;2023-04-06T09:05:15;2.90;;;1.40;;
61397;SDS011;47267;48.130;-2.040;2023-04-06T09:07:44;2.08;;;1.10;;
61397;SDS011;47267;48.130;-2.040;2023-04-06T09:10:10;1.85;;;1.08;;
61397;SDS011;47267;48.130;-2.040;2023-04-06T09:12:36;2.15;;;1.20;;
61397;SDS011;47267;48.130;-2.040;2023-04-06T09:15:02;2.00;;;1.10;;
61397;SDS011;47267;48.130;-2.040;2023-04-06T09:17:28;2.63;;;1.27;;
61397;SDS011;47267;48.130;-2.040;2023-04-06T09:19:57;2.70;;;1.30;;
61397;SDS011;47267;48.130;-2.040;2023-04-06T09:22:24;3.38;;;1.13;;
61397;SDS011;47267;48.130;-2.040;2023-04-06T09:24:52;2.40;;;1.20;;
61397;SDS011;47267;48.130;-2.040;2023-04-06T09:27:34;2.17;;;1.33;;
61397;SDS011;47267;48.130;-2.040;2023-04-06T09:32:31;2.63;;;1.17;;
61397;SDS011;47267;48.130;-2.040;2023-04-06T09:35:07;3.90;;;1.35;;
61397;SDS011;47267;48.130;-2.040;2023-04-06T09:37:34;1.75;;;1.10;;
61397;SDS011;47267;48.130;-2.040;2023-04-06T09:40:06;2.25;;;1.02;;
61397;SDS011;47267;48.130;-2.040;2023-04-06T09:42:33;2.22;;;1.20;;
61397;SDS011;47267;48.130;-2.040;2023-04-06T09:45:00;4.25;;;1.23;;
61397;SDS011;47267;48.130;-2.040;2023-04-06T09:47:26;1.80;;;1.10;;
61397;SDS011;47267;48.130;-2.040;2023-04-06T09:49:57;1.60;;;0.98;;
61397;SDS011;47267;48.130;-2.040;2023-04-06T09:52:37;1.50;;;0.85;;
61397;SDS011;47267;48.130;-2.040;2023-04-06T09:55:07;1.30;;;0.90;;
61397;SDS011;47267;48.130;-2.040;2023-04-06T10:00:23;1.83;;;1.13;;
61397;SDS011;47267;48.130;-2.040;2023-04-06T10:03:04;1.80;;;1.13;;
61397;SDS011;47267;48.130;-2.040;2023-04-06T10:05:57;1.38;;;0.95;;
61397;SDS011;47267;48.130;-2.040;2023-04-06T10:08:29;2.65;;;0.95;;
61397;SDS011;47267;48.130;-2.040;2023-04-06T10:10:58;1.50;;;1.00;;
61397;SDS011;47267;48.130;-2.040;2023-04-06T10:13:25;2.10;;;1.02;;
61397;SDS011;47267;48.130;-2.040;2023-04-06T10:15:51;1.42;;;1.05;;
61397;SDS011;47267;48.130;-2.040;2023-04-06T10:18:17;1.45;;;0.80;;
61397;SDS011;47267;48.130;-2.040;2023-04-06T10:20:48;2.38;;;1.30;;
61397;SDS011;47267;48.130;-2.040;2023-04-06T10:23:31;1.80;;;1.00;;
61397;SDS011;47267;48.130;-2.040;2023-04-06T10:26:03;1.90;;;1.00;;
61397;SDS011;47267;48.130;-2.040;2023-04-06T10:28:33;1.05;;;0.70;;
61397;SDS011;47267;48.130;-2.040;2023-04-06T10:31:04;2.08;;;1.17;;
61397;SDS011;47267;48.130;-2.040;2023-04-06T10:33:31;1.63;;;1.00;;
61397;SDS011;47267;48.130;-2.040;2023-04-06T10:35:56;1.60;;;1.20;;
61397;SDS011;47267;48.130;-2.040;2023-04-06T10:38:38;1.08;;;0.70;;
61397;SDS011;47267;48.130;-2.040;2023-04-06T10:41:09;2.45;;;1.02;;
61397;SDS011;47267;48.130;-2.040;2023-04-06T10:43:37;1.60;;;1.10;;
61397;SDS011;47267;48.130;-2.040;2023-04-06T10:46:05;1.50;;;0.90;;
61397;SDS011;47267;48.130;-2.040;2023-04-06T10:48:41;1.58;;;0.93;;
61397;SDS011;47267;48.130;-2.040;2023-04-06T10:51:13;1.50;;;0.90;;
61397;SDS011;47267;48.130;-2.040;2023-04-06T10:53:46;1.60;;;0.98;;
61397;SDS011;47267;48.130;-2.040;2023-04-06T10:56:14;1.80;;;0.90;;
61397;SDS011;47267;48.130;-2.040;2023-04-06T10:58:45;1.33;;;0.82;;
61397;SDS011;47267;48.130;-2.040;2023-04-06T11:01:11;1.08;;;0.70;;
61397;SDS011;47267;48.130;-2.040;2023-04-06T11:03:42;1.52;;;1.00;;
61397;SDS011;47267;48.130;-2.040;2023-04-06T11:06:22;1.42;;;0.70;;
61397;SDS011;47267;48.130;-2.040;2023-04-06T11:08:49;1.58;;;0.90;;
61397;SDS011;47267;48.130;-2.040;2023-04-06T11:11:17;1.67;;;0.90;;
61397;SDS011;47267;48.130;-2.040;2023-04-06T11:13:51;1.40;;;1.00;;
61397;SDS011;47267;48.130;-2.040;2023-04-06T11:16:28;1.20;;;0.82;;
61397;SDS011;47267;48.130;-2.040;2023-04-06T11:26:46;1.20;;;0.90;;
61397;SDS011;47267;48.130;-2.040;2023-04-06T11:29:24;1.23;;;0.70;;
61397;SDS011;47267;48.130;-2.040;2023-04-06T11:31:52;1.83;;;0.85;;
61397;SDS011;47267;48.130;-2.040;2023-04-06T11:34:23;1.73;;;1.00;;
61397;SDS011;47267;48.130;-2.040;2023-04-06T11:37:02;1.63;;;1.00;;
61397;SDS011;47267;48.130;-2.040;2023-04-06T11:39:37;1.08;;;0.80;;
61397;SDS011;47267;48.130;-2.040;2023-04-06T11:42:08;1.58;;;0.98;;
61397;SDS011;47267;48.130;-2.040;2023-04-06T11:44:44;1.63;;;0.90;;
61397;SDS011;47267;48.130;-2.040;2023-04-06T11:47:11;1.65;;;1.00;;
61397;SDS011;47267;48.130;-2.040;2023-04-06T11:49:38;1.77;;;0.77;;
61397;SDS011;47267;48.130;-2.040;2023-04-06T11:54:44;1.52;;;1.00;;
61397;SDS011;47267;48.130;-2.040;2023-04-06T11:57:11;0.98;;;0.70;;
61397;SDS011;47267;48.130;-2.040;2023-04-06T11:59:37;0.93;;;0.70;;
61397;SDS011;47267;48.130;-2.040;2023-04-06T12:02:02;1.55;;;0.80;;
61397;SDS011;47267;48.130;-2.040;2023-04-06T12:04:32;1.15;;;0.88;;
61397;SDS011;47267;48.130;-2.040;2023-04-06T12:06:58;1.60;;;1.00;;
61397;SDS011;47267;48.130;-2.040;2023-04-06T12:09:24;1.10;;;0.80;;
61397;SDS011;47267;48.130;-2.040;2023-04-06T12:11:50;1.33;;;0.88;;
61397;SDS011;47267;48.130;-2.040;2023-04-06T12:14:15;1.15;;;0.80;;
61397;SDS011;47267;48.130;-2.040;2023-04-06T12:16:41;1.35;;;0.98;;
61397;SDS011;47267;48.130;-2.040;2023-04-06T12:19:07;1.08;;;0.80;;
61397;SDS011;47267;48.130;-2.040;2023-04-06T12:21:36;0.77;;;0.63;;
61397;SDS011;47267;48.130;-2.040;2023-04-06T12:24:02;1.38;;;0.80;;
61397;SDS011;47267;48.130;-2.040;2023-04-06T12:26:29;1.45;;;0.80;;
61397;SDS011;47267;48.130;-2.040;2023-04-06T12:28:55;1.13;;;0.80;;
61397;SDS011;47267;48.130;-2.040;2023-04-06T12:31:21;1.27;;;0.77;;
61397;SDS011;47267;48.130;-2.040;2023-04-06T12:33:51;1.05;;;0.70;;
61397;SDS011;47267;48.130;-2.040;2023-04-06T12:36:17;1.70;;;0.80;;
61397;SDS011;47267;48.130;-2.040;2023-04-06T12:38:45;1.67;;;0.80;;
61397;SDS011;47267;48.130;-2.040;2023-04-06T12:41:12;1.88;;;0.80;;
61397;SDS011;47267;48.130;-2.040;2023-04-06T12:43:39;1.30;;;0.90;;
61397;SDS011;47267;48.130;-2.040;2023-04-06T12:46:05;1.92;;;0.80;;
61397;SDS011;47267;48.130;-2.040;2023-04-06T12:48:33;1.30;;;0.70;;
61397;SDS011;47267;48.130;-2.040;2023-04-06T12:51:03;1.98;;;0.80;;
61397;SDS011;47267;48.130;-2.040;2023-04-06T12:53:30;0.90;;;0.60;;
61397;SDS011;47267;48.130;-2.040;2023-04-06T12:55:57;1.77;;;0.80;;
61397;SDS011;47267;48.130;-2.040;2023-04-06T12:58:23;1.52;;;0.80;;
61397;SDS011;47267;48.130;-2.040;2023-04-06T13:00:53;2.00;;;0.90;;
61397;SDS011;47267;48.130;-2.040;2023-04-06T13:03:20;1.67;;;0.85;;
61397;SDS011;47267;48.130;-2.040;2023-04-06T13:05:47;0.98;;;0.70;;
61397;SDS011;47267;48.130;-2.040;2023-04-06T13:08:14;1.65;;;0.70;;
61397;SDS011;47267;48.130;-2.040;2023-04-06T13:10:44;1.15;;;0.93;;
61397;SDS011;47267;48.130;-2.040;2023-04-06T13:13:13;1.45;;;0.77;;
61397;SDS011;47267;48.130;-2.040;2023-04-06T13:15:40;0.98;;;0.55;;
61397;SDS011;47267;48.130;-2.040;2023-04-06T13:18:06;1.48;;;0.98;;
61397;SDS011;47267;48.130;-2.040;2023-04-06T13:20:33;1.10;;;0.70;;
61397;SDS011;47267;48.130;-2.040;2023-04-06T13:22:59;1.48;;;0.70;;
61397;SDS011;47267;48.130;-2.040;2023-04-06T13:25:24;0.80;;;0.73;;
61397;SDS011;47267;48.130;-2.040;2023-04-06T13:27:50;0.95;;;0.70;;
61397;SDS011;47267;48.130;-2.040;2023-04-06T13:30:16;1.30;;;0.80;;
61397;SDS011;47267;48.130;-2.040;2023-04-06T13:32:42;0.85;;;0.65;;
61397;SDS011;47267;48.130;-2.040;2023-04-06T13:35:08;1.83;;;0.80;;
61397;SDS011;47267;48.130;-2.040;2023-04-06T13:37:34;1.90;;;1.23;;
61397;SDS011;47267;48.130;-2.040;2023-04-06T13:40:01;1.38;;;0.75;;
61397;SDS011;47267;48.130;-2.040;2023-04-06T13:42:29;1.05;;;0.60;;
61397;SDS011;47267;48.130;-2.040;2023-04-06T13:44:55;1.50;;;0.80;;
61397;SDS011;47267;48.130;-2.040;2023-04-06T13:47:21;1.48;;;0.60;;
61397;SDS011;47267;48.130;-2.040;2023-04-06T13:49:49;1.20;;;0.70;;
61397;SDS011;47267;48.130;-2.040;2023-04-06T13:52:16;1.70;;;0.73;;
61397;SDS011;47267;48.130;-2.040;2023-04-06T13:54:42;1.42;;;0.80;;
61397;SDS011;47267;48.130;-2.040;2023-04-06T13:57:11;1.38;;;0.82;;
61397;SDS011;47267;48.130;-2.040;2023-04-06T13:59:37;1.15;;;0.68;;
61397;SDS011;47267;48.130;-2.040;2023-04-06T14:02:04;1.75;;;0.75;;
61397;SDS011;47267;48.130;-2.040;2023-04-06T14:04:32;1.90;;;0.90;;
61397;SDS011;47267;48.130;-2.040;2023-04-06T14:06:58;2.28;;;0.80;;
61397;SDS011;47267;48.130;-2.040;2023-04-06T14:09:25;1.92;;;1.00;;
61397;SDS011;47267;48.130;-2.040;2023-04-06T14:11:51;0.82;;;0.63;;
61397;SDS011;47267;48.130;-2.040;2023-04-06T14:14:17;1.83;;;0.80;;
61397;SDS011;47267;48.130;-2.040;2023-04-06T14:16:42;1.00;;;0.60;;
61397;SDS011;47267;48.130;-2.040;2023-04-06T14:19:11;1.17;;;0.65;;
61397;SDS011;47267;48.130;-2.040;2023-04-06T14:21:39;1.17;;;0.77;;
61397;SDS011;47267;48.130;-2.040;2023-04-06T14:24:08;1.27;;;0.77;;
61397;SDS011;47267;48.130;-2.040;2023-04-06T14:26:37;2.13;;;0.70;;
61397;SDS011;47267;48.130;-2.040;2023-04-06T14:29:03;1.30;;;0.80;;
61397;SDS011;47267;48.130;-2.040;2023-04-06T14:31:30;1.95;;;0.60;;
61397;SDS011;47267;48.130;-2.040;2023-04-06T14:33:57;2.75;;;0.90;;
61397;SDS011;47267;48.130;-2.040;2023-04-06T14:36:26;1.98;;;0.57;;
61397;SDS011;47267;48.130;-2.040;2023-04-06T14:38:54;1.48;;;0.60;;
61397;SDS011;47267;48.130;-2.040;2023-04-06T14:41:22;2.15;;;0.90;;
61397;SDS011;47267;48.130;-2.040;2023-04-06T14:43:49;1.85;;;0.75;;
61397;SDS011;47267;48.130;-2.040;2023-04-06T14:46:17;1.83;;;0.95;;
61397;SDS011;47267;48.130;-2.040;2023-04-06T14:48:43;2.13;;;0.80;;
61397;SDS011;47267;48.130;-2.040;2023-04-06T14:51:10;2.67;;;0.88;;